sensor_id;sensor_type;location;lat;lon;timestamp;P1;durP1;ratioP1;P2;durP2;ratioP2
3427;SDS011;1727;42.624;23.406;2023-10-08T00:00:23;7.23;;;4.43;;
3427;SDS011;1727;42.624;23.406;2023-10-08T00:03:10;5.50;;;4.30;;
3427;SDS011;1727;42.624;23.406;2023-10-08T00:05:38;4.57;;;3.43;;
3427;SDS011;1727;42.624;23.406;2023-10-08T00:08:05;8.20;;;4.87;;
3427;SDS011;1727;42.624;23.406;2023-10-08T00:10:34;9.00;;;4.70;;
3427;SDS011;1727;42.624;23.406;2023-10-08T00:13:04;5.33;;;4.70;;
3427;SDS011;1727;42.624;23.406;2023-10-08T00:15:33;7.90;;;4.70;;
3427;SDS011;1727;42.624;23.406;2023-10-08T00:18:01;5.30;;;3.90;;
3427;SDS011;1727;42.624;23.406;2023-10-08T00:20:30;6.10;;;3.93;;
3427;SDS011;1727;42.624;23.406;2023-10-08T00:23:01;6.20;;;3.80;;
3427;SDS011;1727;42.624;23.406;2023-10-08T00:25:32;4.93;;;4.20;;
3427;SDS011;1727;42.624;23.406;2023-10-08T00:28:07;6.83;;;4.47;;
3427;SDS011;1727;42.624;23.406;2023-10-08T00:30:39;7.63;;;4.60;;
3427;SDS011;1727;42.624;23.406;2023-10-08T00:33:07;7.17;;;3.90;;
3427;SDS011;1727;42.624;23.406;2023-10-08T00:35:40;10.20;;;4.47;;
3427;SDS011;1727;42.624;23.406;2023-10-08T00:38:07;6.83;;;4.20;;
3427;SDS011;1727;42.624;23.406;2023-10-08T00:40:40;5.97;;;4.10;;
3427;SDS011;1727;42.624;23.406;2023-10-08T00:43:12;7.93;;;4.20;;
3427;SDS011;1727;42.624;23.406;2023-10-08T00:45:56;8.40;;;4.17;;
3427;SDS011;1727;42.624;23.406;2023-10-08T00:48:24;6.70;;;4.23;;
3427;SDS011;1727;42.624;23.406;2023-10-08T00:50:54;6.60;;;3.97;;
3427;SDS011;1727;42.624;23.406;2023-10-08T00:53:34;6.83;;;4.30;;
3427;SDS011;1727;42.624;23.406;2023-10-08T00:56:05;4.93;;;4.43;;
3427;SDS011;1727;42.624;23.406;2023-10-08T00:58:40;7.10;;;5.37;;
3427;SDS011;1727;42.624;23.406;2023-10-08T01:01:11;6.53;;;4.90;;
3427;SDS011;1727;42.624;23.406;2023-10-08T01:03:41;5.90;;;4.63;;
3427;SDS011;1727;42.624;23.406;2023-10-08T01:06:10;8.73;;;4.77;;
3427;SDS011;1727;42.624;23.406;2023-10-08T01:08:37;8.73;;;3.97;;
3427;SDS011;1727;42.624;23.406;2023-10-08T01:11:18;4.70;;;3.57;;
3427;SDS011;1727;42.624;23.406;2023-10-08T01:13:57;6.77;;;4.00;;
3427;SDS011;1727;42.624;23.406;2023-10-08T01:16:25;7.83;;;3.43;;
3427;SDS011;1727;42.624;23.406;2023-10-08T01:18:58;6.87;;;4.27;;
3427;SDS011;1727;42.624;23.406;2023-10-08T01:21:28;7.53;;;3.83;;
3427;SDS011;1727;42.624;23.406;2023-10-08T01:24:02;6.70;;;3.93;;
3427;SDS011;1727;42.624;23.406;2023-10-08T01:26:31;6.27;;;5.13;;
3427;SDS011;1727;42.624;23.406;2023-10-08T01:28:58;10.50;;;4.87;;
3427;SDS011;1727;42.624;23.406;2023-10-08T01:31:32;9.20;;;4.80;;
3427;SDS011;1727;42.624;23.406;2023-10-08T01:33:59;5.53;;;4.20;;
3427;SDS011;1727;42.624;23.406;2023-10-08T01:36:29;9.60;;;5.27;;
3427;SDS011;1727;42.624;23.406;2023-10-08T01:38:56;7.97;;;4.60;;
3427;SDS011;1727;42.624;23.406;2023-10-08T01:41:27;7.10;;;5.37;;
3427;SDS011;1727;42.624;23.406;2023-10-08T01:43:55;6.70;;;5.17;;
3427;SDS011;1727;42.624;23.406;2023-10-08T01:46:24;7.00;;;5.27;;
3427;SDS011;1727;42.624;23.406;2023-10-08T01:48:52;7.87;;;5.97;;
3427;SDS011;1727;42.624;23.406;2023-10-08T01:51:28;6.70;;;5.77;;
3427;SDS011;1727;42.624;23.406;2023-10-08T01:54:02;7.77;;;5.23;;
3427;SDS011;1727;42.624;23.406;2023-10-08T01:56:37;7.73;;;6.10;;
3427;SDS011;1727;42.624;23.406;2023-10-08T01:59:06;9.07;;;5.90;;
3427;SDS011;1727;42.624;23.406;2023-10-08T02:01:35;7.00;;;5.03;;
3427;SDS011;1727;42.624;23.406;2023-10-08T02:04:03;8.77;;;6.00;;
3427;SDS011;1727;42.624;23.406;2023-10-08T02:06:32;14.47;;;7.10;;
3427;SDS011;1727;42.624;23.406;2023-10-08T02:08:59;8.40;;;5.60;;
3427;SDS011;1727;42.624;23.406;2023-10-08T02:11:31;6.43;;;5.17;;
3427;SDS011;1727;42.624;23.406;2023-10-08T02:13:59;6.43;;;5.37;;
3427;SDS011;1727;42.624;23.406;2023-10-08T02:16:27;10.03;;;6.10;;
3427;SDS011;1727;42.624;23.406;2023-10-08T02:18:54;6.37;;;4.60;;
3427;SDS011;1727;42.624;23.406;2023-10-08T02:21:20;7.33;;;5.67;;
3427;SDS011;1727;42.624;23.406;2023-10-08T02:23:47;8.90;;;7.00;;
3427;SDS011;1727;42.624;23.406;2023-10-08T02:26:14;6.73;;;5.70;;
3427;SDS011;1727;42.624;23.406;2023-10-08T02:28:41;8.83;;;5.37;;
3427;SDS011;1727;42.624;23.406;2023-10-08T02:31:09;9.47;;;5.17;;
3427;SDS011;1727;42.624;23.406;2023-10-08T02:33:36;7.87;;;4.63;;
3427;SDS011;1727;42.624;23.406;2023-10-08T02:36:03;5.67;;;4.00;;
3427;SDS011;1727;42.624;23.406;2023-10-08T02:38:30;6.87;;;4.30;;
3427;SDS011;1727;42.624;23.406;2023-10-08T02:41:03;9.00;;;4.67;;
3427;SDS011;1727;42.624;23.406;2023-10-08T02:43:31;6.53;;;4.80;;
3427;SDS011;1727;42.624;23.406;2023-10-08T02:45:59;5.70;;;4.30;;
3427;SDS011;1727;42.624;23.406;2023-10-08T02:48:27;6.97;;;5.10;;
3427;SDS011;1727;42.624;23.406;2023-10-08T02:50:54;5.70;;;4.97;;
3427;SDS011;1727;42.624;23.406;2023-10-08T02:53:32;5.80;;;4.13;;
3427;SDS011;1727;42.624;23.406;2023-10-08T02:55:59;6.67;;;3.97;;
3427;SDS011;1727;42.624;23.406;2023-10-08T02:58:26;7.07;;;4.23;;
3427;SDS011;1727;42.624;23.406;2023-10-08T03:00:56;5.93;;;4.73;;
3427;SDS011;1727;42.624;23.406;2023-10-08T03:03:22;7.67;;;5.00;;
3427;SDS011;1727;42.624;23.406;2023-10-08T03:05:52;7.03;;;4.43;;
3427;SDS011;1727;42.624;23.406;2023-10-08T03:08:21;7.97;;;4.63;;
3427;SDS011;1727;42.624;23.406;2023-10-08T03:10:49;6.13;;;4.00;;
3427;SDS011;1727;42.624;23.406;2023-10-08T03:13:20;7.13;;;4.40;;
3427;SDS011;1727;42.624;23.406;2023-10-08T03:15:47;7.67;;;4.97;;
3427;SDS011;1727;42.624;23.406;2023-10-08T03:18:33;5.33;;;3.90;;
3427;SDS011;1727;42.624;23.406;2023-10-08T03:21:04;5.60;;;4.17;;
3427;SDS011;1727;42.624;23.406;2023-10-08T03:23:45;6.17;;;4.20;;
3427;SDS011;1727;42.624;23.406;2023-10-08T03:26:15;5.53;;;3.60;;
3427;SDS011;1727;42.624;23.406;2023-10-08T03:28:59;4.30;;;3.90;;
3427;SDS011;1727;42.624;23.406;2023-10-08T03:31:31;6.33;;;4.10;;
3427;SDS011;1727;42.624;23.406;2023-10-08T03:34:15;5.47;;;3.87;;
3427;SDS011;1727;42.624;23.406;2023-10-08T03:36:45;5.00;;;3.73;;
3427;SDS011;1727;42.624;23.406;2023-10-08T03:39:15;5.90;;;4.40;;
3427;SDS011;1727;42.624;23.406;2023-10-08T03:41:43;4.20;;;3.83;;
3427;SDS011;1727;42.624;23.406;2023-10-08T03:44:23;9.23;;;4.23;;
3427;SDS011;1727;42.624;23.406;2023-10-08T03:46:50;6.23;;;4.17;;
3427;SDS011;1727;42.624;23.406;2023-10-08T03:49:17;6.67;;;4.37;;
3427;SDS011;1727;42.624;23.406;2023-10-08T03:51:53;6.80;;;4.30;;
3427;SDS011;1727;42.624;23.406;2023-10-08T03:54:22;6.40;;;4.50;;
3427;SDS011;1727;42.624;23.406;2023-10-08T03:56:54;7.33;;;4.23;;
3427;SDS011;1727;42.624;23.406;2023-10-08T03:59:22;8.03;;;4.17;;
3427;SDS011;1727;42.624;23.406;2023-10-08T04:01:56;4.70;;;4.20;;
3427;SDS011;1727;42.624;23.406;2023-10-08T04:04:34;7.30;;;4.97;;
3427;SDS011;1727;42.624;23.406;2023-10-08T04:07:16;6.50;;;4.33;;
3427;SDS011;1727;42.624;23.406;2023-10-08T04:10:05;5.07;;;3.63;;
3427;SDS011;1727;42.624;23.406;2023-10-08T04:12:59;6.00;;;4.63;;
3427;SDS011;1727;42.624;23.406;2023-10-08T04:15:26;10.33;;;4.10;;
3427;SDS011;1727;42.624;23.406;2023-10-08T04:17:53;4.90;;;3.83;;
3427;SDS011;1727;42.624;23.406;2023-10-08T04:20:21;5.73;;;3.80;;
3427;SDS011;1727;42.624;23.406;2023-10-08T04:23:00;6.67;;;4.23;;
3427;SDS011;1727;42.624;23.406;2023-10-08T04:25:27;3.90;;;3.43;;
3427;SDS011;1727;42.624;23.406;2023-10-08T04:27:54;5.67;;;4.40;;
3427;SDS011;1727;42.624;23.406;2023-10-08T04:30:24;7.80;;;4.40;;
3427;SDS011;1727;42.624;23.406;2023-10-08T04:32:58;6.60;;;4.30;;
3427;SDS011;1727;42.624;23.406;2023-10-08T04:35:31;4.90;;;3.93;;
3427;SDS011;1727;42.624;23.406;2023-10-08T04:38:03;6.40;;;4.27;;
3427;SDS011;1727;42.624;23.406;2023-10-08T04:40:33;6.57;;;5.13;;
3427;SDS011;1727;42.624;23.406;2023-10-08T04:43:07;6.53;;;5.10;;
3427;SDS011;1727;42.624;23.406;2023-10-08T04:45:36;5.37;;;4.37;;
3427;SDS011;1727;42.624;23.406;2023-10-08T04:48:03;6.90;;;4.73;;
3427;SDS011;1727;42.624;23.406;2023-10-08T04:50:34;6.93;;;3.93;;
3427;SDS011;1727;42.624;23.406;2023-10-08T04:53:03;5.50;;;4.80;;
3427;SDS011;1727;42.624;23.406;2023-10-08T04:55:33;10.60;;;7.60;;
3427;SDS011;1727;42.624;23.406;2023-10-08T04:58:04;10.07;;;7.63;;
3427;SDS011;1727;42.624;23.406;2023-10-08T05:00:37;13.23;;;6.40;;
3427;SDS011;1727;42.624;23.406;2023-10-08T05:03:18;8.13;;;6.23;;
3427;SDS011;1727;42.624;23.406;2023-10-08T05:05:48;6.70;;;4.50;;
3427;SDS011;1727;42.624;23.406;2023-10-08T05:08:34;12.10;;;5.50;;
3427;SDS011;1727;42.624;23.406;2023-10-08T05:11:13;7.37;;;4.70;;
3427;SDS011;1727;42.624;23.406;2023-10-08T05:14:02;12.37;;;4.40;;
3427;SDS011;1727;42.624;23.406;2023-10-08T05:16:31;6.87;;;5.47;;
3427;SDS011;1727;42.624;23.406;2023-10-08T05:19:14;8.03;;;5.20;;
3427;SDS011;1727;42.624;23.406;2023-10-08T05:21:59;10.40;;;4.53;;
3427;SDS011;1727;42.624;23.406;2023-10-08T05:24:44;6.53;;;4.30;;
3427;SDS011;1727;42.624;23.406;2023-10-08T05:27:31;6.20;;;5.00;;
3427;SDS011;1727;42.624;23.406;2023-10-08T05:30:22;8.27;;;4.70;;
3427;SDS011;1727;42.624;23.406;2023-10-08T05:33:03;12.03;;;4.80;;
3427;SDS011;1727;42.624;23.406;2023-10-08T05:35:49;11.53;;;3.90;;
3427;SDS011;1727;42.624;23.406;2023-10-08T05:38:16;13.57;;;5.00;;
3427;SDS011;1727;42.624;23.406;2023-10-08T05:40:50;6.13;;;4.73;;
3427;SDS011;1727;42.624;23.406;2023-10-08T05:43:31;6.97;;;4.93;;
3427;SDS011;1727;42.624;23.406;2023-10-08T05:46:16;6.40;;;4.70;;
3427;SDS011;1727;42.624;23.406;2023-10-08T05:49:00;9.07;;;4.57;;
3427;SDS011;1727;42.624;23.406;2023-10-08T05:51:41;8.30;;;4.53;;
3427;SDS011;1727;42.624;23.406;2023-10-08T05:54:23;7.60;;;5.40;;
3427;SDS011;1727;42.624;23.406;2023-10-08T05:57:03;7.40;;;5.80;;
3427;SDS011;1727;42.624;23.406;2023-10-08T05:59:40;8.30;;;4.93;;
3427;SDS011;1727;42.624;23.406;2023-10-08T06:02:18;8.07;;;5.40;;
3427;SDS011;1727;42.624;23.406;2023-10-08T06:04:53;8.43;;;5.77;;
3427;SDS011;1727;42.624;23.406;2023-10-08T06:07:45;7.03;;;5.07;;
3427;SDS011;1727;42.624;23.406;2023-10-08T06:10:21;10.70;;;5.57;;
3427;SDS011;1727;42.624;23.406;2023-10-08T06:13:09;11.00;;;5.73;;
3427;SDS011;1727;42.624;23.406;2023-10-08T06:15:39;20.70;;;12.50;;
3427;SDS011;1727;42.624;23.406;2023-10-08T06:18:13;7.97;;;5.67;;
3427;SDS011;1727;42.624;23.406;2023-10-08T06:20:40;7.60;;;6.47;;
3427;SDS011;1727;42.624;23.406;2023-10-08T06:23:08;8.60;;;6.23;;
3427;SDS011;1727;42.624;23.406;2023-10-08T06:25:37;8.50;;;7.00;;
3427;SDS011;1727;42.624;23.406;2023-10-08T06:28:16;11.40;;;5.40;;
3427;SDS011;1727;42.624;23.406;2023-10-08T06:30:45;12.13;;;6.10;;
3427;SDS011;1727;42.624;23.406;2023-10-08T06:33:12;13.20;;;6.37;;
3427;SDS011;1727;42.624;23.406;2023-10-08T06:35:39;10.13;;;6.10;;
3427;SDS011;1727;42.624;23.406;2023-10-08T06:38:09;11.43;;;6.27;;
3427;SDS011;1727;42.624;23.406;2023-10-08T06:40:40;10.93;;;6.00;;
3427;SDS011;1727;42.624;23.406;2023-10-08T06:43:08;6.53;;;5.60;;
3427;SDS011;1727;42.624;23.406;2023-10-08T06:45:41;8.37;;;5.43;;
3427;SDS011;1727;42.624;23.406;2023-10-08T06:48:09;9.60;;;6.00;;
3427;SDS011;1727;42.624;23.406;2023-10-08T06:50:43;10.03;;;6.23;;
3427;SDS011;1727;42.624;23.406;2023-10-08T06:53:10;5.93;;;4.97;;
3427;SDS011;1727;42.624;23.406;2023-10-08T06:55:39;11.27;;;6.50;;
3427;SDS011;1727;42.624;23.406;2023-10-08T06:58:06;8.03;;;5.70;;
3427;SDS011;1727;42.624;23.406;2023-10-08T07:00:34;7.83;;;5.30;;
3427;SDS011;1727;42.624;23.406;2023-10-08T07:03:09;8.17;;;6.27;;
3427;SDS011;1727;42.624;23.406;2023-10-08T07:05:40;16.33;;;6.50;;
3427;SDS011;1727;42.624;23.406;2023-10-08T07:08:09;8.57;;;5.40;;
3427;SDS011;1727;42.624;23.406;2023-10-08T07:10:38;8.50;;;5.70;;
3427;SDS011;1727;42.624;23.406;2023-10-08T07:13:07;8.33;;;5.50;;
3427;SDS011;1727;42.624;23.406;2023-10-08T07:15:34;9.77;;;5.50;;
3427;SDS011;1727;42.624;23.406;2023-10-08T07:18:04;9.97;;;5.43;;
3427;SDS011;1727;42.624;23.406;2023-10-08T07:20:39;6.37;;;5.07;;
3427;SDS011;1727;42.624;23.406;2023-10-08T07:23:10;8.70;;;5.77;;
3427;SDS011;1727;42.624;23.406;2023-10-08T07:25:54;7.67;;;6.23;;
3427;SDS011;1727;42.624;23.406;2023-10-08T07:28:27;9.83;;;6.73;;
3427;SDS011;1727;42.624;23.406;2023-10-08T07:30:55;10.83;;;6.30;;
3427;SDS011;1727;42.624;23.406;2023-10-08T07:33:22;8.30;;;6.00;;
3427;SDS011;1727;42.624;23.406;2023-10-08T07:35:59;7.77;;;6.90;;
3427;SDS011;1727;42.624;23.406;2023-10-08T07:38:37;8.27;;;6.30;;
3427;SDS011;1727;42.624;23.406;2023-10-08T07:41:04;15.07;;;7.60;;
3427;SDS011;1727;42.624;23.406;2023-10-08T07:43:31;12.17;;;7.17;;
3427;SDS011;1727;42.624;23.406;2023-10-08T07:45:58;16.27;;;6.53;;
3427;SDS011;1727;42.624;23.406;2023-10-08T07:48:25;7.40;;;5.77;;
3427;SDS011;1727;42.624;23.406;2023-10-08T07:50:55;10.20;;;6.40;;
3427;SDS011;1727;42.624;23.406;2023-10-08T07:53:24;11.00;;;5.57;;
3427;SDS011;1727;42.624;23.406;2023-10-08T07:56:02;7.87;;;6.17;;
3427;SDS011;1727;42.624;23.406;2023-10-08T07:58:32;13.53;;;6.50;;
3427;SDS011;1727;42.624;23.406;2023-10-08T08:01:02;7.90;;;6.07;;
3427;SDS011;1727;42.624;23.406;2023-10-08T08:03:31;9.40;;;6.10;;
3427;SDS011;1727;42.624;23.406;2023-10-08T08:06:01;13.90;;;7.43;;
3427;SDS011;1727;42.624;23.406;2023-10-08T08:08:32;16.70;;;9.37;;
3427;SDS011;1727;42.624;23.406;2023-10-08T08:11:00;10.93;;;7.53;;
3427;SDS011;1727;42.624;23.406;2023-10-08T08:13:31;14.70;;;6.77;;
3427;SDS011;1727;42.624;23.406;2023-10-08T08:15:59;14.23;;;6.47;;
3427;SDS011;1727;42.624;23.406;2023-10-08T08:18:35;9.73;;;6.27;;
3427;SDS011;1727;42.624;23.406;2023-10-08T08:21:03;8.93;;;6.40;;
3427;SDS011;1727;42.624;23.406;2023-10-08T08:23:30;10.77;;;6.93;;
3427;SDS011;1727;42.624;23.406;2023-10-08T08:25:59;19.17;;;7.30;;
3427;SDS011;1727;42.624;23.406;2023-10-08T08:28:51;11.97;;;6.10;;
3427;SDS011;1727;42.624;23.406;2023-10-08T08:31:19;9.43;;;6.20;;
3427;SDS011;1727;42.624;23.406;2023-10-08T08:33:46;10.73;;;6.30;;
3427;SDS011;1727;42.624;23.406;2023-10-08T08:36:21;7.83;;;6.10;;
3427;SDS011;1727;42.624;23.406;2023-10-08T08:38:49;8.23;;;6.20;;
3427;SDS011;1727;42.624;23.406;2023-10-08T08:41:17;9.53;;;5.93;;
3427;SDS011;1727;42.624;23.406;2023-10-08T08:43:47;8.73;;;5.60;;
3427;SDS011;1727;42.624;23.406;2023-10-08T08:46:15;12.20;;;6.97;;
3427;SDS011;1727;42.624;23.406;2023-10-08T08:48:42;8.70;;;5.87;;
3427;SDS011;1727;42.624;23.406;2023-10-08T08:51:10;10.17;;;6.33;;
3427;SDS011;1727;42.624;23.406;2023-10-08T08:53:38;11.13;;;5.40;;
3427;SDS011;1727;42.624;23.406;2023-10-08T08:56:06;17.83;;;5.23;;
3427;SDS011;1727;42.624;23.406;2023-10-08T08:58:37;15.30;;;5.40;;
3427;SDS011;1727;42.624;23.406;2023-10-08T09:01:06;8.50;;;4.80;;
3427;SDS011;1727;42.624;23.406;2023-10-08T09:03:38;8.27;;;4.80;;
3427;SDS011;1727;42.624;23.406;2023-10-08T09:06:05;7.30;;;4.17;;
3427;SDS011;1727;42.624;23.406;2023-10-08T09:08:33;5.50;;;4.10;;
3427;SDS011;1727;42.624;23.406;2023-10-08T09:11:00;6.30;;;4.50;;
3427;SDS011;1727;42.624;23.406;2023-10-08T09:13:30;7.67;;;4.60;;
3427;SDS011;1727;42.624;23.406;2023-10-08T09:16:06;6.97;;;4.90;;
3427;SDS011;1727;42.624;23.406;2023-10-08T09:18:34;6.93;;;4.57;;
3427;SDS011;1727;42.624;23.406;2023-10-08T09:21:08;10.20;;;5.00;;
3427;SDS011;1727;42.624;23.406;2023-10-08T09:23:41;9.27;;;5.93;;
3427;SDS011;1727;42.624;23.406;2023-10-08T09:26:13;11.23;;;4.97;;
3427;SDS011;1727;42.624;23.406;2023-10-08T09:28:44;9.73;;;5.37;;
3427;SDS011;1727;42.624;23.406;2023-10-08T09:31:15;9.80;;;4.70;;
3427;SDS011;1727;42.624;23.406;2023-10-08T09:33:53;23.00;;;6.60;;
3427;SDS011;1727;42.624;23.406;2023-10-08T09:36:20;9.90;;;4.77;;
3427;SDS011;1727;42.624;23.406;2023-10-08T09:38:56;7.20;;;4.33;;
3427;SDS011;1727;42.624;23.406;2023-10-08T09:41:26;9.57;;;4.27;;
3427;SDS011;1727;42.624;23.406;2023-10-08T09:43:55;6.87;;;4.63;;
3427;SDS011;1727;42.624;23.406;2023-10-08T09:46:27;8.30;;;4.47;;
3427;SDS011;1727;42.624;23.406;2023-10-08T09:48:59;7.13;;;4.60;;
3427;SDS011;1727;42.624;23.406;2023-10-08T09:51:28;5.40;;;3.90;;
3427;SDS011;1727;42.624;23.406;2023-10-08T09:53:59;7.40;;;4.83;;
3427;SDS011;1727;42.624;23.406;2023-10-08T09:56:35;7.70;;;5.27;;
3427;SDS011;1727;42.624;23.406;2023-10-08T09:59:04;8.70;;;4.03;;
3427;SDS011;1727;42.624;23.406;2023-10-08T10:01:33;5.90;;;4.13;;
3427;SDS011;1727;42.624;23.406;2023-10-08T10:04:05;7.30;;;4.90;;
3427;SDS011;1727;42.624;23.406;2023-10-08T10:06:32;8.30;;;4.70;;
3427;SDS011;1727;42.624;23.406;2023-10-08T10:09:01;8.07;;;4.27;;
3427;SDS011;1727;42.624;23.406;2023-10-08T10:11:33;8.23;;;4.97;;
3427;SDS011;1727;42.624;23.406;2023-10-08T10:14:00;6.90;;;5.50;;
3427;SDS011;1727;42.624;23.406;2023-10-08T10:16:31;10.47;;;5.13;;
3427;SDS011;1727;42.624;23.406;2023-10-08T10:19:03;6.40;;;4.87;;
3427;SDS011;1727;42.624;23.406;2023-10-08T10:21:32;9.93;;;4.30;;
3427;SDS011;1727;42.624;23.406;2023-10-08T10:23:59;9.27;;;4.50;;
3427;SDS011;1727;42.624;23.406;2023-10-08T10:26:31;8.90;;;4.57;;
3427;SDS011;1727;42.624;23.406;2023-10-08T10:29:18;8.07;;;4.50;;
3427;SDS011;1727;42.624;23.406;2023-10-08T10:31:47;6.93;;;4.97;;
3427;SDS011;1727;42.624;23.406;2023-10-08T10:34:20;11.93;;;5.50;;
3427;SDS011;1727;42.624;23.406;2023-10-08T10:36:49;8.80;;;3.67;;
3427;SDS011;1727;42.624;23.406;2023-10-08T10:39:21;6.20;;;4.23;;
3427;SDS011;1727;42.624;23.406;2023-10-08T10:41:53;11.27;;;5.40;;
3427;SDS011;1727;42.624;23.406;2023-10-08T10:44:22;7.80;;;3.40;;
3427;SDS011;1727;42.624;23.406;2023-10-08T10:46:50;6.40;;;4.00;;
3427;SDS011;1727;42.624;23.406;2023-10-08T10:49:17;4.57;;;3.50;;
3427;SDS011;1727;42.624;23.406;2023-10-08T10:51:49;7.90;;;3.70;;
3427;SDS011;1727;42.624;23.406;2023-10-08T10:54:22;6.33;;;3.80;;
3427;SDS011;1727;42.624;23.406;2023-10-08T10:56:49;9.20;;;3.83;;
3427;SDS011;1727;42.624;23.406;2023-10-08T10:59:28;11.20;;;5.37;;
3427;SDS011;1727;42.624;23.406;2023-10-08T11:02:02;5.20;;;3.90;;
3427;SDS011;1727;42.624;23.406;2023-10-08T11:04:34;4.10;;;3.70;;
3427;SDS011;1727;42.624;23.406;2023-10-08T11:07:14;10.40;;;3.77;;
3427;SDS011;1727;42.624;23.406;2023-10-08T11:09:43;7.50;;;3.43;;
3427;SDS011;1727;42.624;23.406;2023-10-08T11:12:10;6.17;;;3.80;;
3427;SDS011;1727;42.624;23.406;2023-10-08T11:14:48;7.50;;;3.70;;
3427;SDS011;1727;42.624;23.406;2023-10-08T11:17:17;9.03;;;4.00;;
3427;SDS011;1727;42.624;23.406;2023-10-08T11:19:49;5.47;;;4.07;;
3427;SDS011;1727;42.624;23.406;2023-10-08T11:22:18;5.87;;;3.20;;
3427;SDS011;1727;42.624;23.406;2023-10-08T11:24:48;9.80;;;4.10;;
3427;SDS011;1727;42.624;23.406;2023-10-08T11:27:19;4.53;;;3.60;;
3427;SDS011;1727;42.624;23.406;2023-10-08T11:29:55;5.77;;;3.60;;
3427;SDS011;1727;42.624;23.406;2023-10-08T11:32:23;7.23;;;3.43;;
3427;SDS011;1727;42.624;23.406;2023-10-08T11:34:54;7.17;;;3.70;;
3427;SDS011;1727;42.624;23.406;2023-10-08T11:37:28;4.20;;;3.33;;
3427;SDS011;1727;42.624;23.406;2023-10-08T11:39:59;6.57;;;4.10;;
3427;SDS011;1727;42.624;23.406;2023-10-08T11:42:34;10.80;;;4.17;;
3427;SDS011;1727;42.624;23.406;2023-10-08T11:45:09;9.10;;;5.03;;
3427;SDS011;1727;42.624;23.406;2023-10-08T11:47:49;6.57;;;3.80;;
3427;SDS011;1727;42.624;23.406;2023-10-08T11:50:22;8.93;;;3.60;;
3427;SDS011;1727;42.624;23.406;2023-10-08T11:52:57;11.33;;;3.87;;
3427;SDS011;1727;42.624;23.406;2023-10-08T11:55:28;14.27;;;5.90;;
3427;SDS011;1727;42.624;23.406;2023-10-08T11:57:55;7.90;;;3.73;;
3427;SDS011;1727;42.624;23.406;2023-10-08T12:00:22;9.50;;;4.77;;
3427;SDS011;1727;42.624;23.406;2023-10-08T12:02:52;10.83;;;4.20;;
3427;SDS011;1727;42.624;23.406;2023-10-08T12:05:20;7.70;;;4.00;;
3427;SDS011;1727;42.624;23.406;2023-10-08T12:07:49;12.43;;;4.47;;
3427;SDS011;1727;42.624;23.406;2023-10-08T12:10:18;15.93;;;4.87;;
3427;SDS011;1727;42.624;23.406;2023-10-08T12:12:49;9.53;;;4.57;;
3427;SDS011;1727;42.624;23.406;2023-10-08T12:15:17;7.37;;;3.90;;
3427;SDS011;1727;42.624;23.406;2023-10-08T12:17:46;8.60;;;3.87;;
3427;SDS011;1727;42.624;23.406;2023-10-08T12:20:34;13.67;;;4.40;;
3427;SDS011;1727;42.624;23.406;2023-10-08T12:23:02;10.10;;;3.97;;
3427;SDS011;1727;42.624;23.406;2023-10-08T12:25:31;10.97;;;4.33;;
3427;SDS011;1727;42.624;23.406;2023-10-08T12:27:59;10.87;;;4.20;;
3427;SDS011;1727;42.624;23.406;2023-10-08T12:30:29;20.13;;;4.67;;
3427;SDS011;1727;42.624;23.406;2023-10-08T12:33:06;6.33;;;4.33;;
3427;SDS011;1727;42.624;23.406;2023-10-08T12:35:37;9.80;;;4.67;;
3427;SDS011;1727;42.624;23.406;2023-10-08T12:38:05;8.27;;;3.77;;
3427;SDS011;1727;42.624;23.406;2023-10-08T12:40:35;11.13;;;3.70;;
3427;SDS011;1727;42.624;23.406;2023-10-08T12:43:13;6.80;;;3.93;;
3427;SDS011;1727;42.624;23.406;2023-10-08T12:45:44;9.43;;;4.37;;
3427;SDS011;1727;42.624;23.406;2023-10-08T12:48:17;14.17;;;3.90;;
3427;SDS011;1727;42.624;23.406;2023-10-08T12:50:45;17.83;;;5.23;;
3427;SDS011;1727;42.624;23.406;2023-10-08T12:53:18;10.13;;;4.23;;
3427;SDS011;1727;42.624;23.406;2023-10-08T12:55:50;12.97;;;4.93;;
3427;SDS011;1727;42.624;23.406;2023-10-08T12:58:20;9.10;;;4.37;;
3427;SDS011;1727;42.624;23.406;2023-10-08T13:00:52;8.93;;;4.67;;
3427;SDS011;1727;42.624;23.406;2023-10-08T13:03:24;11.83;;;5.20;;
3427;SDS011;1727;42.624;23.406;2023-10-08T13:05:55;18.00;;;5.43;;
3427;SDS011;1727;42.624;23.406;2023-10-08T13:08:29;10.63;;;4.47;;
3427;SDS011;1727;42.624;23.406;2023-10-08T13:10:57;12.03;;;4.10;;
3427;SDS011;1727;42.624;23.406;2023-10-08T13:13:26;8.03;;;3.33;;
3427;SDS011;1727;42.624;23.406;2023-10-08T13:15:53;13.17;;;5.43;;
3427;SDS011;1727;42.624;23.406;2023-10-08T13:18:21;12.10;;;4.10;;
3427;SDS011;1727;42.624;23.406;2023-10-08T13:20:48;12.80;;;4.47;;
3427;SDS011;1727;42.624;23.406;2023-10-08T13:23:16;10.93;;;4.63;;
3427;SDS011;1727;42.624;23.406;2023-10-08T13:25:44;9.23;;;4.20;;
3427;SDS011;1727;42.624;23.406;2023-10-08T13:28:18;14.03;;;4.03;;
3427;SDS011;1727;42.624;23.406;2023-10-08T13:30:46;13.03;;;6.17;;
3427;SDS011;1727;42.624;23.406;2023-10-08T13:33:17;8.70;;;4.30;;
3427;SDS011;1727;42.624;23.406;2023-10-08T13:35:44;12.20;;;4.90;;
3427;SDS011;1727;42.624;23.406;2023-10-08T13:38:13;8.83;;;4.30;;
3427;SDS011;1727;42.624;23.406;2023-10-08T13:40:41;10.30;;;4.60;;
3427;SDS011;1727;42.624;23.406;2023-10-08T13:43:28;6.83;;;4.30;;
3427;SDS011;1727;42.624;23.406;2023-10-08T13:46:03;13.60;;;3.57;;
3427;SDS011;1727;42.624;23.406;2023-10-08T13:48:32;8.27;;;3.97;;
3427;SDS011;1727;42.624;23.406;2023-10-08T13:51:01;18.50;;;6.17;;
3427;SDS011;1727;42.624;23.406;2023-10-08T13:53:29;7.43;;;3.13;;
3427;SDS011;1727;42.624;23.406;2023-10-08T13:55:57;7.50;;;3.10;;
3427;SDS011;1727;42.624;23.406;2023-10-08T13:58:26;15.87;;;4.30;;
3427;SDS011;1727;42.624;23.406;2023-10-08T14:00:56;7.73;;;4.33;;
3427;SDS011;1727;42.624;23.406;2023-10-08T14:03:25;12.30;;;5.33;;
3427;SDS011;1727;42.624;23.406;2023-10-08T14:05:56;6.93;;;3.50;;
3427;SDS011;1727;42.624;23.406;2023-10-08T14:08:27;8.80;;;4.67;;
3427;SDS011;1727;42.624;23.406;2023-10-08T14:10:54;7.10;;;3.53;;
3427;SDS011;1727;42.624;23.406;2023-10-08T14:13:25;6.10;;;3.73;;
3427;SDS011;1727;42.624;23.406;2023-10-08T14:15:54;16.33;;;4.30;;
3427;SDS011;1727;42.624;23.406;2023-10-08T14:18:22;6.90;;;3.60;;
3427;SDS011;1727;42.624;23.406;2023-10-08T14:20:53;10.03;;;3.73;;
3427;SDS011;1727;42.624;23.406;2023-10-08T14:23:20;7.23;;;3.13;;
3427;SDS011;1727;42.624;23.406;2023-10-08T14:25:47;6.33;;;4.27;;
3427;SDS011;1727;42.624;23.406;2023-10-08T14:28:17;11.40;;;4.23;;
3427;SDS011;1727;42.624;23.406;2023-10-08T14:31:07;13.63;;;4.43;;
3427;SDS011;1727;42.624;23.406;2023-10-08T14:33:34;7.60;;;4.60;;
3427;SDS011;1727;42.624;23.406;2023-10-08T14:36:07;4.80;;;3.40;;
3427;SDS011;1727;42.624;23.406;2023-10-08T14:38:52;8.07;;;4.37;;
3427;SDS011;1727;42.624;23.406;2023-10-08T14:41:36;10.70;;;4.00;;
3427;SDS011;1727;42.624;23.406;2023-10-08T14:44:20;18.00;;;4.30;;
3427;SDS011;1727;42.624;23.406;2023-10-08T14:46:49;8.93;;;3.90;;
3427;SDS011;1727;42.624;23.406;2023-10-08T14:49:16;12.40;;;5.00;;
3427;SDS011;1727;42.624;23.406;2023-10-08T14:51:43;10.83;;;3.23;;
3427;SDS011;1727;42.624;23.406;2023-10-08T14:54:14;15.53;;;4.90;;
3427;SDS011;1727;42.624;23.406;2023-10-08T14:56:41;13.67;;;4.20;;
3427;SDS011;1727;42.624;23.406;2023-10-08T14:59:08;12.73;;;4.23;;
3427;SDS011;1727;42.624;23.406;2023-10-08T15:01:34;15.00;;;4.27;;
3427;SDS011;1727;42.624;23.406;2023-10-08T15:04:03;15.47;;;4.97;;
3427;SDS011;1727;42.624;23.406;2023-10-08T15:06:31;15.00;;;5.37;;
3427;SDS011;1727;42.624;23.406;2023-10-08T15:08:58;18.20;;;5.67;;
3427;SDS011;1727;42.624;23.406;2023-10-08T15:11:26;8.10;;;4.03;;
3427;SDS011;1727;42.624;23.406;2023-10-08T15:13:55;11.43;;;4.50;;
3427;SDS011;1727;42.624;23.406;2023-10-08T15:16:22;16.70;;;4.07;;
3427;SDS011;1727;42.624;23.406;2023-10-08T15:18:51;10.57;;;4.33;;
3427;SDS011;1727;42.624;23.406;2023-10-08T15:21:19;10.40;;;4.43;;
3427;SDS011;1727;42.624;23.406;2023-10-08T15:23:46;12.83;;;4.63;;